Search for airport 
image banner adimage banner adimage banner ad
image banner ad

50PA - Pegasus Air Park

Located in Stroudsburg, United States

ICAO - 50PA, IATA -

Data provided by Airmate  

General information

Coordinates: N40°56'0" W75°20'59"
Elevation is 620 feet MSL.
Magnetic variation is -12° East
View others Airports in Pennsylvania

Operational data

Special qualification required
Current time UTC:
Current local time:
Weather at : KMPO - Pocono Mountains Muni ( 23 km )
METAR: KMPO 091553Z AUTO 18007KT 150V210 10SM BKN100 11/M01 A3001 RMK AO2 SLP172 T01061006 $
View NOTAMs / SUP AIP / TFR affecting this airport [VIEW]
Communications frequencies: [VIEW]

Runways:

RWY identifierQFULength (ft)Width (ft)SurfaceLDA (ft)
E2700100GRASS
W2700100GRASS

Airport contact information

Address: Stroudsburg United States

Satellite view of 50PA